Harbinger, North Carolina
Current Conditions -  °F | °C
As of 12:15 AM on Sunday 26 Oct 2014 (Local Time) from KFFA Reporting Station
Clear Clear  
Wind Chill: 59°   Ceiling: Unl
Heat Index: 59°   Visibility: 10mi
Dew Point: 50°   Wind: 5mph
Humidity: 72%   Direction: 240°WSW
Pressure: 29.8"   Gusts: NA
Location:  36.1°N, 75.81°W
Report Text: KFFA 260415Z AUTO 24004KT 10SM CLR 15/10 A2980 RMK AO2 T01480098
Loading
Personal Weather Stations






























Interactive Weather Map
Tropical Storm Tracking
New forecast layout! Learn more

10-Day Weather Forecast

Advertisements
Track Severe Weather on mobile